createdAt,value
2022-08-17T00:01:04.973Z,8.00
2022-08-17T00:06:14.071Z,7.00
2022-08-17T00:11:18.220Z,7.80
2022-08-17T00:16:23.047Z,8.00
2022-08-17T00:22:31.360Z,8.00
2022-08-17T00:27:10.818Z,7.00
2022-08-17T00:33:13.838Z,8.00
2022-08-17T00:37:37.880Z,7.60
2022-08-17T00:42:40.908Z,9.00
2022-08-17T00:47:43.923Z,7.80
2022-08-17T00:52:56.756Z,8.00
2022-08-17T00:58:01.258Z,8.80
2022-08-17T01:03:06.933Z,8.00
2022-08-17T01:08:12.947Z,8.80
2022-08-17T01:13:15.878Z,7.40
2022-08-17T01:18:18.708Z,7.00
2022-08-17T01:23:24.489Z,8.00
2022-08-17T01:28:52.601Z,8.40
2022-08-17T01:33:51.773Z,7.40
2022-08-17T01:38:55.977Z,7.80
2022-08-17T01:44:01.580Z,6.80
2022-08-17T01:49:07.051Z,8.00
2022-08-17T01:54:12.622Z,7.00
2022-08-17T01:59:16.096Z,7.00
2022-08-17T02:04:19.122Z,7.00
2022-08-17T02:09:25.666Z,6.80
2022-08-17T02:14:28.981Z,8.00
2022-08-17T02:19:32.268Z,8.60
2022-08-17T02:25:00.187Z,7.60
2022-08-17T02:30:00.358Z,6.40
2022-08-17T02:35:03.420Z,6.60
2022-08-17T02:40:09.142Z,7.00
2022-08-17T02:45:13.497Z,7.00
2022-08-17T02:50:17.262Z,7.20
2022-08-17T02:55:23.737Z,5.40
2022-08-17T03:00:29.192Z,7.20
2022-08-17T03:05:33.265Z,6.40
2022-08-17T03:10:37.496Z,5.80
2022-08-17T03:15:43.891Z,7.00
2022-08-17T03:20:47.191Z,7.00
2022-08-17T03:25:53.437Z,7.00
2022-08-17T03:30:56.647Z,7.00
2022-08-17T03:35:59.605Z,7.00
2022-08-17T03:41:03.913Z,7.00
2022-08-17T03:46:27.940Z,8.00
2022-08-17T03:51:49.770Z,10.00
2022-08-17T03:56:58.728Z,10.00
2022-08-17T04:02:03.735Z,12.00
2022-08-17T04:07:06.987Z,10.00
2022-08-17T04:12:11.216Z,10.00
2022-08-17T04:17:15.015Z,9.60
2022-08-17T04:22:30.291Z,10.40
2022-08-17T04:27:35.855Z,10.60
2022-08-17T04:33:04.552Z,11.00
2022-08-17T04:38:10.820Z,10.00
2022-08-17T04:43:16.394Z,11.00
2022-08-17T04:48:21.728Z,10.60
2022-08-17T04:53:24.642Z,11.00
2022-08-17T04:58:29.311Z,10.20
2022-08-17T05:03:32.169Z,9.80
2022-08-17T05:08:34.873Z,10.60
2022-08-17T05:13:39.004Z,10.60
2022-08-17T05:18:41.762Z,11.20
2022-08-17T05:23:44.465Z,11.80
2022-08-17T05:28:53.406Z,11.60
2022-08-17T05:33:56.964Z,10.80
2022-08-17T05:39:00.116Z,12.40
2022-08-17T05:44:05.238Z,11.80
2022-08-17T05:49:08.906Z,13.00
2022-08-17T05:54:21.530Z,13.00
2022-08-17T05:59:30.840Z,11.20
2022-08-17T06:04:38.290Z,10.00
2022-08-17T06:09:42.916Z,11.80
2022-08-17T06:14:56.069Z,11.00
2022-08-17T06:20:00.628Z,14.00
2022-08-17T06:25:09.996Z,13.20
2022-08-17T06:30:16.074Z,10.00
2022-08-17T06:35:20.583Z,11.00
2022-08-17T06:40:46.399Z,11.60
2022-08-17T06:45:54.209Z,9.60
2022-08-17T06:51:00.228Z,10.40
2022-08-17T06:56:05.439Z,10.00
2022-08-17T07:01:11.847Z,9.80
2022-08-17T07:06:17.105Z,9.60
2022-08-17T07:11:24.423Z,9.00
2022-08-17T07:16:38.878Z,10.00
2022-08-17T07:21:45.989Z,10.80
2022-08-17T07:26:49.650Z,10.60
2022-08-17T07:31:55.996Z,10.60
2022-08-17T07:37:03.396Z,10.00
2022-08-17T07:42:06.398Z,10.00
2022-08-17T07:47:28.051Z,9.40
2022-08-17T07:52:50.439Z,9.80
2022-08-17T07:57:56.019Z,9.40
2022-08-17T08:03:07.199Z,9.60
2022-08-17T08:08:28.171Z,9.60
2022-08-17T08:13:32.178Z,10.00
2022-08-17T08:18:54.719Z,8.80
2022-08-17T08:24:02.184Z,8.80
2022-08-17T08:29:09.327Z,8.60
2022-08-17T08:35:01.067Z,8.80
2022-08-17T08:39:45.212Z,10.00
2022-08-17T08:44:59.796Z,9.20
2022-08-17T08:50:37.395Z,7.80
2022-08-17T08:55:48.591Z,8.80
2022-08-17T09:00:53.324Z,9.00
2022-08-17T09:06:32.018Z,8.00
2022-08-17T09:12:01.857Z,8.00
2022-08-17T09:17:08.441Z,7.20
2022-08-17T09:22:25.585Z,8.00
2022-08-17T09:27:29.859Z,7.00
2022-08-17T09:32:35.218Z,8.80
2022-08-17T09:37:44.294Z,8.20
2022-08-17T09:42:48.868Z,8.40
2022-08-17T09:47:54.474Z,8.00
2022-08-17T09:52:59.887Z,8.20
2022-08-17T09:58:05.907Z,7.20
2022-08-17T10:03:25.063Z,8.80
2022-08-17T10:08:36.058Z,7.20
2022-08-17T10:13:52.756Z,7.00
2022-08-17T10:19:04.464Z,7.00
2022-08-17T10:24:28.520Z,7.60
2022-08-17T10:29:46.252Z,7.80
2022-08-17T10:35:02.069Z,7.00
2022-08-17T10:40:32.608Z,7.00
2022-08-17T10:45:37.859Z,8.00
2022-08-17T10:50:47.477Z,7.20
2022-08-17T10:56:17.412Z,7.40
2022-08-17T11:01:20.534Z,8.00
2022-08-17T11:06:26.439Z,8.00
2022-08-17T11:11:47.293Z,7.00
2022-08-17T11:16:58.327Z,7.40
2022-08-17T11:22:08.068Z,6.80
2022-08-17T11:27:24.134Z,6.40
2022-08-17T11:32:34.324Z,7.00
2022-08-17T11:37:47.367Z,7.00
2022-08-17T11:43:00.930Z,8.00
2022-08-17T11:48:28.706Z,7.00
2022-08-17T11:54:31.748Z,6.00
2022-08-17T11:59:59.030Z,6.00
2022-08-17T12:05:26.088Z,7.00
2022-08-17T12:10:31.873Z,6.20
2022-08-17T12:15:38.932Z,7.00
2022-08-17T12:20:43.708Z,6.60
2022-08-17T12:25:49.255Z,7.60
2022-08-17T12:30:53.536Z,7.00
2022-08-17T12:35:59.475Z,7.00
2022-08-17T12:41:24.339Z,7.00
2022-08-17T12:46:28.739Z,7.00
2022-08-17T12:51:31.723Z,6.80
2022-08-17T12:56:35.048Z,8.00
2022-08-17T13:01:41.631Z,7.80
2022-08-17T13:06:48.530Z,5.40
2022-08-17T13:11:52.200Z,7.00
2022-08-17T13:16:58.151Z,6.20
2022-08-17T13:22:01.793Z,5.80
2022-08-17T13:27:08.737Z,6.00
2022-08-17T13:32:19.759Z,6.00
2022-08-17T13:37:30.126Z,7.00
2022-08-17T13:42:51.510Z,6.00
2022-08-17T13:48:14.121Z,6.20
2022-08-17T13:53:21.317Z,5.60
2022-08-17T13:58:25.395Z,6.20
2022-08-17T14:03:29.513Z,6.80
2022-08-17T14:08:33.227Z,5.80
2022-08-17T14:13:36.496Z,5.40
2022-08-17T14:18:57.058Z,5.80
2022-08-17T14:24:00.323Z,6.00
2022-08-17T14:29:03.138Z,5.60
2022-08-17T14:34:10.573Z,5.80
2022-08-17T14:39:16.151Z,6.00
2022-08-17T14:44:18.980Z,5.00
2022-08-17T14:49:23.878Z,5.00
2022-08-17T14:54:33.910Z,6.00
2022-08-17T14:59:37.562Z,5.60
2022-08-17T15:04:45.578Z,5.00
2022-08-17T15:09:48.625Z,5.40
2022-08-17T15:14:51.607Z,5.00
2022-08-17T15:19:55.951Z,5.60
2022-08-17T15:24:58.686Z,6.00
2022-08-17T15:30:01.731Z,5.00
2022-08-17T15:35:06.977Z,5.40
2022-08-17T15:40:11.119Z,5.60
2022-08-17T15:45:14.563Z,4.00
2022-08-17T15:50:18.806Z,4.00
2022-08-17T15:55:24.163Z,5.00
2022-08-17T16:00:28.485Z,6.00
2022-08-17T16:05:32.760Z,5.00
2022-08-17T16:10:36.059Z,5.00
2022-08-17T16:15:39.151Z,4.20
2022-08-17T16:20:43.587Z,5.00
2022-08-17T16:25:53.451Z,4.00
2022-08-17T16:30:56.860Z,5.00
2022-08-17T16:36:01.015Z,4.00
2022-08-17T16:41:04.025Z,4.00
2022-08-17T16:46:06.747Z,3.80
2022-08-17T16:51:10.984Z,5.00
2022-08-17T16:56:13.851Z,5.00
2022-08-17T17:01:20.645Z,5.00
2022-08-17T17:06:30.835Z,5.00
2022-08-17T17:11:36.368Z,5.00
2022-08-17T17:16:45.629Z,5.00
2022-08-17T17:21:51.827Z,4.60
2022-08-17T17:27:07.237Z,3.40
2022-08-17T17:32:14.950Z,5.00
2022-08-17T17:37:25.637Z,4.80
2022-08-17T17:42:31.326Z,5.00
2022-08-17T17:47:34.807Z,4.00
2022-08-17T17:52:47.603Z,4.00
2022-08-17T17:57:57.114Z,4.40
2022-08-17T18:03:07.220Z,4.00
2022-08-17T18:08:18.884Z,3.60
2022-08-17T18:13:26.597Z,4.00
2022-08-17T18:18:40.338Z,4.40
2022-08-17T18:23:56.223Z,4.80
2022-08-17T18:28:58.941Z,4.00
2022-08-17T18:34:43.692Z,4.20
2022-08-17T18:39:44.930Z,4.00
2022-08-17T18:44:51.680Z,4.20
2022-08-17T18:49:58.552Z,4.00
2022-08-17T18:55:08.496Z,4.00
2022-08-17T19:00:12.851Z,4.00
2022-08-17T19:05:28.242Z,3.80
2022-08-17T19:10:46.661Z,4.00
2022-08-17T19:16:11.666Z,4.00
2022-08-17T19:21:16.396Z,4.20
2022-08-17T19:26:55.209Z,4.40
2022-08-17T19:31:45.624Z,3.00
2022-08-17T19:36:51.603Z,4.00
2022-08-17T19:42:00.723Z,5.00
2022-08-17T19:47:10.414Z,5.00
2022-08-17T19:52:22.551Z,5.00
2022-08-17T19:57:33.671Z,5.80
2022-08-17T20:02:38.774Z,6.00
2022-08-17T20:07:44.622Z,5.60
2022-08-17T20:12:48.775Z,6.00
2022-08-17T20:17:51.794Z,5.00
2022-08-17T20:22:56.198Z,5.00
2022-08-17T20:28:06.198Z,6.00
2022-08-17T20:33:19.413Z,6.00
2022-08-17T20:38:42.122Z,6.60
2022-08-17T20:44:05.099Z,7.00
2022-08-17T20:49:16.409Z,7.40
2022-08-17T20:54:50.600Z,7.60
2022-08-17T21:00:15.000Z,7.60
2022-08-17T21:05:40.431Z,7.00
2022-08-17T21:10:47.145Z,9.00
2022-08-17T21:15:54.719Z,8.00
2022-08-17T21:21:05.338Z,7.00
2022-08-17T21:26:17.440Z,7.00
2022-08-17T21:31:34.422Z,7.40
2022-08-17T21:36:37.351Z,7.80
2022-08-17T21:41:46.428Z,7.00
2022-08-17T21:46:52.294Z,7.00
2022-08-17T21:51:55.989Z,7.40
2022-08-17T21:56:59.011Z,6.40
2022-08-17T22:02:03.897Z,7.00
2022-08-17T22:07:07.717Z,7.00
2022-08-17T22:12:11.891Z,8.00
2022-08-17T22:17:18.067Z,7.00
2022-08-17T22:22:26.250Z,7.40
2022-08-17T22:27:51.192Z,8.00
2022-08-17T22:32:55.456Z,7.60
2022-08-17T22:37:58.898Z,7.80
2022-08-17T22:43:03.425Z,8.00
2022-08-17T22:48:07.662Z,8.00
2022-08-17T22:53:32.999Z,7.80
2022-08-17T22:58:59.208Z,7.60
2022-08-17T23:04:05.733Z,7.40
2022-08-17T23:09:09.120Z,8.00
2022-08-17T23:14:12.395Z,8.60
2022-08-17T23:19:18.065Z,8.00
2022-08-17T23:24:22.338Z,6.60
2022-08-17T23:29:25.170Z,8.00
2022-08-17T23:34:29.289Z,7.60
2022-08-17T23:39:32.120Z,7.00
2022-08-17T23:44:35.046Z,7.40
2022-08-17T23:49:40.317Z,7.40
2022-08-17T23:54:44.583Z,7.40
2022-08-17T23:59:47.323Z,7.40
